sensor_id;sensor_type;location;lat;lon;timestamp;pressure;altitude;pressure_sealevel;temperature;humidity
38022;BME280;23832;43.216;27.946;2023-04-08T00:00:02;101247.19;;;12.97;59.87
38022;BME280;23832;43.216;27.946;2023-04-08T00:02:05;101252.75;;;12.71;59.84
38022;BME280;23832;43.216;27.946;2023-04-08T00:04:07;101247.81;;;12.68;60.27
38022;BME280;23832;43.216;27.946;2023-04-08T00:06:10;101247.97;;;12.67;60.22
38022;BME280;23832;43.216;27.946;2023-04-08T00:08:12;101240.53;;;12.70;60.67
38022;BME280;23832;43.216;27.946;2023-04-08T00:10:13;101247.81;;;12.68;60.30
38022;BME280;23832;43.216;27.946;2023-04-08T00:12:15;101243.00;;;12.72;59.61
38022;BME280;23832;43.216;27.946;2023-04-08T00:14:17;101242.66;;;12.75;59.25
38022;BME280;23832;43.216;27.946;2023-04-08T00:16:19;101249.72;;;12.83;59.12
38022;BME280;23832;43.216;27.946;2023-04-08T00:18:21;101235.38;;;12.77;58.71
38022;BME280;23832;43.216;27.946;2023-04-08T00:20:23;101240.69;;;12.77;58.12
38022;BME280;23832;43.216;27.946;2023-04-08T00:22:26;101240.97;;;12.82;58.23
38022;BME280;23832;43.216;27.946;2023-04-08T00:24:28;101237.13;;;12.85;58.21
38022;BME280;23832;43.216;27.946;2023-04-08T00:26:29;101243.72;;;12.97;57.63
38022;BME280;23832;43.216;27.946;2023-04-08T00:28:31;101241.94;;;12.89;57.93
38022;BME280;23832;43.216;27.946;2023-04-08T00:30:33;101239.00;;;12.76;58.37
38022;BME280;23832;43.216;27.946;2023-04-08T00:32:34;101240.63;;;12.85;58.51
38022;BME280;23832;43.216;27.946;2023-04-08T00:34:36;101249.03;;;12.89;57.74
38022;BME280;23832;43.216;27.946;2023-04-08T00:36:38;101247.72;;;12.85;58.53
38022;BME280;23832;43.216;27.946;2023-04-08T00:38:41;101247.25;;;12.81;58.89
38022;BME280;23832;43.216;27.946;2023-04-08T00:40:43;101247.41;;;12.88;58.54
38022;BME280;23832;43.216;27.946;2023-04-08T00:42:44;101248.56;;;12.85;58.94
38022;BME280;23832;43.216;27.946;2023-04-08T00:44:46;101249.41;;;12.86;58.80
38022;BME280;23832;43.216;27.946;2023-04-08T00:46:48;101239.00;;;12.76;59.23
38022;BME280;23832;43.216;27.946;2023-04-08T00:48:49;101245.63;;;12.72;59.58
38022;BME280;23832;43.216;27.946;2023-04-08T00:50:51;101246.94;;;12.76;59.80
38022;BME280;23832;43.216;27.946;2023-04-08T00:52:53;101253.22;;;12.75;61.08
38022;BME280;23832;43.216;27.946;2023-04-08T00:54:56;101155.16;;;12.06;61.94
38022;BME280;23832;43.216;27.946;2023-04-08T00:56:58;101252.59;;;12.73;64.45
38022;BME280;23832;43.216;27.946;2023-04-08T00:59:00;101255.66;;;12.85;65.95
38022;BME280;23832;43.216;27.946;2023-04-08T01:01:04;101254.63;;;12.94;67.58
38022;BME280;23832;43.216;27.946;2023-04-08T01:03:07;101255.53;;;12.78;70.88
38022;BME280;23832;43.216;27.946;2023-04-08T01:05:12;101251.91;;;12.79;71.57
38022;BME280;23832;43.216;27.946;2023-04-08T01:07:16;101249.59;;;12.76;72.67
38022;BME280;23832;43.216;27.946;2023-04-08T01:09:20;101254.44;;;12.64;75.13
38022;BME280;23832;43.216;27.946;2023-04-08T01:11:25;101261.53;;;12.64;75.11
38022;BME280;23832;43.216;27.946;2023-04-08T01:13:29;101246.19;;;12.59;76.12
38022;BME280;23832;43.216;27.946;2023-04-08T01:15:31;101253.22;;;12.36;80.52
38022;BME280;23832;43.216;27.946;2023-04-08T01:17:35;101251.72;;;12.33;82.07
38022;BME280;23832;43.216;27.946;2023-04-08T01:19:38;101257.22;;;12.71;76.59
38022;BME280;23832;43.216;27.946;2023-04-08T01:21:40;101250.28;;;12.70;75.99
38022;BME280;23832;43.216;27.946;2023-04-08T01:23:45;101253.44;;;12.65;75.28
38022;BME280;23832;43.216;27.946;2023-04-08T01:25:52;101245.38;;;12.59;74.94
38022;BME280;23832;43.216;27.946;2023-04-08T01:27:54;101250.81;;;12.57;74.25
38022;BME280;23832;43.216;27.946;2023-04-08T01:29:57;101249.31;;;12.63;73.94
38022;BME280;23832;43.216;27.946;2023-04-08T01:32:00;101253.44;;;12.65;73.32
38022;BME280;23832;43.216;27.946;2023-04-08T01:34:02;101250.13;;;12.63;73.09
38022;BME280;23832;43.216;27.946;2023-04-08T01:36:05;101250.31;;;12.62;72.48
38022;BME280;23832;43.216;27.946;2023-04-08T01:38:09;101244.69;;;12.57;71.82
38022;BME280;23832;43.216;27.946;2023-04-08T01:40:11;101242.75;;;12.50;71.72
38022;BME280;23832;43.216;27.946;2023-04-08T01:42:15;101240.94;;;12.51;71.37
38022;BME280;23832;43.216;27.946;2023-04-08T01:44:18;101245.41;;;12.50;70.34
38022;BME280;23832;43.216;27.946;2023-04-08T01:46:21;101244.69;;;12.57;69.78
38022;BME280;23832;43.216;27.946;2023-04-08T01:48:23;101246.34;;;12.58;69.12
38022;BME280;23832;43.216;27.946;2023-04-08T01:50:26;101252.81;;;12.55;69.00
38022;BME280;23832;43.216;27.946;2023-04-08T01:52:28;101249.34;;;12.55;68.18
38022;BME280;23832;43.216;27.946;2023-04-08T01:54:30;101243.22;;;12.54;67.65
38022;BME280;23832;43.216;27.946;2023-04-08T01:56:35;101248.75;;;12.36;67.46
38022;BME280;23832;43.216;27.946;2023-04-08T01:58:40;101244.56;;;12.58;67.30
38022;BME280;23832;43.216;27.946;2023-04-08T02:00:43;101245.00;;;12.70;66.08
38022;BME280;23832;43.216;27.946;2023-04-08T02:02:45;101247.00;;;12.68;65.57
38022;BME280;23832;43.216;27.946;2023-04-08T02:04:47;101246.88;;;12.53;66.23
38022;BME280;23832;43.216;27.946;2023-04-08T02:06:49;101245.09;;;12.37;67.01
38022;BME280;23832;43.216;27.946;2023-04-08T02:08:51;101244.47;;;12.27;68.02
38022;BME280;23832;43.216;27.946;2023-04-08T02:10:53;101241.00;;;12.18;67.91
38022;BME280;23832;43.216;27.946;2023-04-08T02:12:55;101242.22;;;12.00;68.88
38022;BME280;23832;43.216;27.946;2023-04-08T02:14:59;101143.84;;;11.32;70.83
38022;BME280;23832;43.216;27.946;2023-04-08T02:17:04;101253.25;;;12.11;69.97
38022;BME280;23832;43.216;27.946;2023-04-08T02:19:07;101244.03;;;12.07;70.43
38022;BME280;23832;43.216;27.946;2023-04-08T02:21:10;101243.69;;;11.86;72.47
38022;BME280;23832;43.216;27.946;2023-04-08T02:23:14;101249.78;;;11.94;71.97
38022;BME280;23832;43.216;27.946;2023-04-08T02:25:19;101253.25;;;12.03;71.58
38022;BME280;23832;43.216;27.946;2023-04-08T02:27:22;101259.72;;;11.92;71.14
38022;BME280;23832;43.216;27.946;2023-04-08T02:29:25;101262.34;;;12.01;70.75
38022;BME280;23832;43.216;27.946;2023-04-08T02:31:29;101269.63;;;11.90;70.66
38022;BME280;23832;43.216;27.946;2023-04-08T02:33:31;101267.00;;;11.82;71.12
38022;BME280;23832;43.216;27.946;2023-04-08T02:35:34;101270.09;;;11.86;71.58
38022;BME280;23832;43.216;27.946;2023-04-08T02:37:36;101266.63;;;12.02;71.00
38022;BME280;23832;43.216;27.946;2023-04-08T02:39:39;101264.16;;;12.08;70.31
38022;BME280;23832;43.216;27.946;2023-04-08T02:41:40;101262.00;;;12.04;71.56
38022;BME280;23832;43.216;27.946;2023-04-08T02:43:42;101262.19;;;11.78;74.79
38022;BME280;23832;43.216;27.946;2023-04-08T02:45:44;101275.91;;;12.06;74.05
38022;BME280;23832;43.216;27.946;2023-04-08T02:47:47;101277.84;;;12.20;73.84
38022;BME280;23832;43.216;27.946;2023-04-08T02:49:49;101284.28;;;12.26;73.64
38022;BME280;23832;43.216;27.946;2023-04-08T02:51:52;101281.50;;;12.11;74.90
38022;BME280;23832;43.216;27.946;2023-04-08T02:53:54;101280.84;;;12.09;76.10
38022;BME280;23832;43.216;27.946;2023-04-08T02:55:55;101283.78;;;12.30;74.17
38022;BME280;23832;43.216;27.946;2023-04-08T02:57:57;101288.09;;;12.31;75.07
38022;BME280;23832;43.216;27.946;2023-04-08T02:59:59;101277.03;;;12.19;76.09
38022;BME280;23832;43.216;27.946;2023-04-08T03:02:00;101284.47;;;12.16;75.78
38022;BME280;23832;43.216;27.946;2023-04-08T03:04:04;101276.22;;;12.03;76.47
38022;BME280;23832;43.216;27.946;2023-04-08T03:06:06;101278.16;;;11.76;78.88
38022;BME280;23832;43.216;27.946;2023-04-08T03:08:07;101280.81;;;11.68;78.53
38022;BME280;23832;43.216;27.946;2023-04-08T03:10:09;101290.44;;;11.85;75.92
38022;BME280;23832;43.216;27.946;2023-04-08T03:12:11;101279.03;;;11.93;74.52
38022;BME280;23832;43.216;27.946;2023-04-08T03:14:13;101282.84;;;11.99;73.97
38022;BME280;23832;43.216;27.946;2023-04-08T03:16:17;101285.13;;;11.93;73.51
38022;BME280;23832;43.216;27.946;2023-04-08T03:18:18;101284.66;;;11.98;72.61
38022;BME280;23832;43.216;27.946;2023-04-08T03:20:22;101291.75;;;12.06;72.45
38022;BME280;23832;43.216;27.946;2023-04-08T03:22:23;101289.28;;;11.96;76.64
38022;BME280;23832;43.216;27.946;2023-04-08T03:24:25;101296.22;;;11.81;78.88
38022;BME280;23832;43.216;27.946;2023-04-08T03:26:27;101291.56;;;11.75;81.08
38022;BME280;23832;43.216;27.946;2023-04-08T03:28:28;101290.56;;;11.76;81.73
38022;BME280;23832;43.216;27.946;2023-04-08T03:30:30;101288.28;;;11.81;79.77
38022;BME280;23832;43.216;27.946;2023-04-08T03:32:32;101280.16;;;11.74;78.23
38022;BME280;23832;43.216;27.946;2023-04-08T03:34:34;101286.78;;;11.78;76.14
38022;BME280;23832;43.216;27.946;2023-04-08T03:36:37;101289.59;;;11.69;75.33
38022;BME280;23832;43.216;27.946;2023-04-08T03:38:39;101294.31;;;11.49;75.32
38022;BME280;23832;43.216;27.946;2023-04-08T03:40:41;101292.97;;;11.28;75.61
38022;BME280;23832;43.216;27.946;2023-04-08T03:42:43;101300.56;;;11.40;75.38
38022;BME280;23832;43.216;27.946;2023-04-08T03:44:45;101299.31;;;11.60;74.19
38022;BME280;23832;43.216;27.946;2023-04-08T03:46:46;101306.09;;;11.71;72.95
38022;BME280;23832;43.216;27.946;2023-04-08T03:48:48;101307.91;;;11.62;71.94
38022;BME280;23832;43.216;27.946;2023-04-08T03:50:50;101303.59;;;11.53;72.76
38022;BME280;23832;43.216;27.946;2023-04-08T03:52:53;101308.06;;;11.69;72.07
38022;BME280;23832;43.216;27.946;2023-04-08T03:54:55;101317.66;;;11.78;71.58
38022;BME280;23832;43.216;27.946;2023-04-08T03:56:57;101317.66;;;11.86;70.71
38022;BME280;23832;43.216;27.946;2023-04-08T03:58:58;101320.31;;;12.02;69.43
38022;BME280;23832;43.216;27.946;2023-04-08T04:01:00;101312.91;;;11.89;69.76
38022;BME280;23832;43.216;27.946;2023-04-08T04:03:02;101316.72;;;11.87;69.50
38022;BME280;23832;43.216;27.946;2023-04-08T04:05:04;101316.53;;;11.88;70.02
38022;BME280;23832;43.216;27.946;2023-04-08T04:07:06;101319.19;;;11.88;69.94
38022;BME280;23832;43.216;27.946;2023-04-08T04:09:09;101321.75;;;11.56;73.19
38022;BME280;23832;43.216;27.946;2023-04-08T04:11:11;101324.72;;;11.53;74.52
38022;BME280;23832;43.216;27.946;2023-04-08T04:13:13;101321.91;;;11.54;77.74
38022;BME280;23832;43.216;27.946;2023-04-08T04:15:15;101331.97;;;11.59;79.61
38022;BME280;23832;43.216;27.946;2023-04-08T04:17:17;101338.22;;;11.50;84.58
38022;BME280;23832;43.216;27.946;2023-04-08T04:19:18;101333.16;;;11.73;85.41
38022;BME280;23832;43.216;27.946;2023-04-08T04:21:20;101337.69;;;12.05;85.01
38022;BME280;23832;43.216;27.946;2023-04-08T04:23:22;101344.75;;;12.20;84.27
38022;BME280;23832;43.216;27.946;2023-04-08T04:25:26;101342.47;;;12.34;84.68
38022;BME280;23832;43.216;27.946;2023-04-08T04:27:28;101341.44;;;12.43;86.01
38022;BME280;23832;43.216;27.946;2023-04-08T04:29:30;101341.63;;;12.49;87.09
38022;BME280;23832;43.216;27.946;2023-04-08T04:31:31;101330.16;;;12.57;88.15
38022;BME280;23832;43.216;27.946;2023-04-08T04:33:33;101336.28;;;12.58;90.82
38022;BME280;23832;43.216;27.946;2023-04-08T04:35:35;101338.19;;;12.88;89.41
38022;BME280;23832;43.216;27.946;2023-04-08T04:37:36;101342.03;;;13.25;85.75
38022;BME280;23832;43.216;27.946;2023-04-08T04:39:38;101331.00;;;13.21;86.78
38022;BME280;23832;43.216;27.946;2023-04-08T04:41:41;101341.16;;;13.41;84.84
38022;BME280;23832;43.216;27.946;2023-04-08T04:43:43;101343.44;;;13.44;85.77
38022;BME280;23832;43.216;27.946;2023-04-08T04:45:45;101339.09;;;13.51;85.17
38022;BME280;23832;43.216;27.946;2023-04-08T04:47:47;101334.38;;;13.61;84.93
38022;BME280;23832;43.216;27.946;2023-04-08T04:49:49;101330.03;;;13.68;83.91
38022;BME280;23832;43.216;27.946;2023-04-08T04:51:51;101331.16;;;13.74;83.09
38022;BME280;23832;43.216;27.946;2023-04-08T04:53:52;101338.22;;;14.04;80.27
38022;BME280;23832;43.216;27.946;2023-04-08T04:55:54;101336.41;;;14.19;77.89
38022;BME280;23832;43.216;27.946;2023-04-08T04:57:57;101333.69;;;14.65;74.29
38022;BME280;23832;43.216;27.946;2023-04-08T04:59:59;101334.69;;;14.79;72.71
38022;BME280;23832;43.216;27.946;2023-04-08T05:02:01;101344.88;;;14.75;72.78
38022;BME280;23832;43.216;27.946;2023-04-08T05:04:02;101343.38;;;14.88;72.45
38022;BME280;23832;43.216;27.946;2023-04-08T05:06:04;101338.94;;;15.24;70.78
38022;BME280;23832;43.216;27.946;2023-04-08T05:08:06;101338.47;;;15.36;70.48
38022;BME280;23832;43.216;27.946;2023-04-08T05:10:08;101344.44;;;15.38;69.91
38022;BME280;23832;43.216;27.946;2023-04-08T05:12:10;101342.94;;;15.50;69.13
38022;BME280;23832;43.216;27.946;2023-04-08T05:14:14;101345.84;;;15.91;66.94
38022;BME280;23832;43.216;27.946;2023-04-08T05:16:15;101344.69;;;16.00;66.29
38022;BME280;23832;43.216;27.946;2023-04-08T05:18:17;101356.75;;;15.81;67.22
38022;BME280;23832;43.216;27.946;2023-04-08T05:20:18;101355.00;;;15.67;69.23
38022;BME280;23832;43.216;27.946;2023-04-08T05:22:20;101355.91;;;15.74;71.69
38022;BME280;23832;43.216;27.946;2023-04-08T05:24:22;101350.53;;;16.17;70.42
38022;BME280;23832;43.216;27.946;2023-04-08T05:26:24;101358.78;;;16.22;69.27
38022;BME280;23832;43.216;27.946;2023-04-08T05:28:26;101361.22;;;16.45;67.61
38022;BME280;23832;43.216;27.946;2023-04-08T05:30:29;101352.84;;;16.20;68.09
38022;BME280;23832;43.216;27.946;2023-04-08T05:32:31;101357.19;;;16.28;68.42
38022;BME280;23832;43.216;27.946;2023-04-08T05:34:32;101358.25;;;16.61;66.64
38022;BME280;23832;43.216;27.946;2023-04-08T05:36:34;101352.56;;;16.64;67.12
38022;BME280;23832;43.216;27.946;2023-04-08T05:38:36;101358.72;;;16.99;64.55
38022;BME280;23832;43.216;27.946;2023-04-08T05:40:38;101352.63;;;17.12;63.72
38022;BME280;23832;43.216;27.946;2023-04-08T05:42:40;101358.06;;;17.39;62.92
38022;BME280;23832;43.216;27.946;2023-04-08T05:44:42;101361.69;;;17.92;61.13
38022;BME280;23832;43.216;27.946;2023-04-08T05:46:45;101370.75;;;18.44;58.79
38022;BME280;23832;43.216;27.946;2023-04-08T05:48:47;101359.25;;;18.24;58.98
38022;BME280;23832;43.216;27.946;2023-04-08T05:50:49;101365.91;;;17.53;60.02
38022;BME280;23832;43.216;27.946;2023-04-08T05:52:51;101357.19;;;17.99;59.90
38022;BME280;23832;43.216;27.946;2023-04-08T05:54:52;101358.63;;;18.15;59.69
38022;BME280;23832;43.216;27.946;2023-04-08T05:56:54;101353.91;;;18.10;60.78
38022;BME280;23832;43.216;27.946;2023-04-08T05:58:56;101358.72;;;19.06;58.03
38022;BME280;23832;43.216;27.946;2023-04-08T06:00:58;101365.72;;;19.07;57.60
38022;BME280;23832;43.216;27.946;2023-04-08T06:03:01;101362.91;;;18.89;58.56
38022;BME280;23832;43.216;27.946;2023-04-08T06:05:03;101365.84;;;19.25;56.83
38022;BME280;23832;43.216;27.946;2023-04-08T06:07:05;101363.50;;;19.42;55.81
38022;BME280;23832;43.216;27.946;2023-04-08T06:09:07;101370.13;;;18.68;57.35
38022;BME280;23832;43.216;27.946;2023-04-08T06:11:09;101369.91;;;18.50;57.51
38022;BME280;23832;43.216;27.946;2023-04-08T06:13:11;101370.69;;;18.97;57.04
38022;BME280;23832;43.216;27.946;2023-04-08T06:15:12;101367.66;;;19.32;55.47
38022;BME280;23832;43.216;27.946;2023-04-08T06:17:15;101366.13;;;19.04;56.23
38022;BME280;23832;43.216;27.946;2023-04-08T06:19:19;101366.66;;;19.71;55.06
38022;BME280;23832;43.216;27.946;2023-04-08T06:21:21;101371.84;;;19.66;54.70
38022;BME280;23832;43.216;27.946;2023-04-08T06:23:22;101374.53;;;19.97;54.55
38022;BME280;23832;43.216;27.946;2023-04-08T06:25:24;101372.34;;;19.88;53.28
38022;BME280;23832;43.216;27.946;2023-04-08T06:27:26;101371.44;;;20.50;52.71
38022;BME280;23832;43.216;27.946;2023-04-08T06:29:28;101370.75;;;20.30;52.22
38022;BME280;23832;43.216;27.946;2023-04-08T06:31:30;101368.03;;;20.36;52.47
38022;BME280;23832;43.216;27.946;2023-04-08T06:33:32;101374.31;;;20.49;52.53
38022;BME280;23832;43.216;27.946;2023-04-08T06:35:35;101369.06;;;20.35;52.01
38022;BME280;23832;43.216;27.946;2023-04-08T06:37:37;101372.94;;;20.64;51.75
38022;BME280;23832;43.216;27.946;2023-04-08T06:39:39;101378.47;;;21.24;50.48
38022;BME280;23832;43.216;27.946;2023-04-08T06:41:41;101365.97;;;21.67;48.81
38022;BME280;23832;43.216;27.946;2023-04-08T06:43:42;101373.19;;;21.36;48.57
38022;BME280;23832;43.216;27.946;2023-04-08T06:45:44;101368.03;;;21.65;48.50
38022;BME280;23832;43.216;27.946;2023-04-08T06:47:46;101367.63;;;21.79;47.86
38022;BME280;23832;43.216;27.946;2023-04-08T06:49:48;101368.69;;;21.48;49.12
38022;BME280;23832;43.216;27.946;2023-04-08T06:51:51;101366.50;;;21.87;48.44
38022;BME280;23832;43.216;27.946;2023-04-08T06:53:53;101379.50;;;21.42;48.52
38022;BME280;23832;43.216;27.946;2023-04-08T06:55:55;101371.34;;;21.67;48.46
38022;BME280;23832;43.216;27.946;2023-04-08T06:57:57;101372.44;;;22.31;47.20
38022;BME280;23832;43.216;27.946;2023-04-08T06:59:58;101378.16;;;22.58;46.58
38022;BME280;23832;43.216;27.946;2023-04-08T07:02:00;101379.53;;;22.84;45.86
38022;BME280;23832;43.216;27.946;2023-04-08T07:04:02;101377.09;;;22.71;46.02
38022;BME280;23832;43.216;27.946;2023-04-08T07:06:03;101383.31;;;22.48;45.40
38022;BME280;23832;43.216;27.946;2023-04-08T07:08:07;101385.72;;;23.48;43.78
38022;BME280;23832;43.216;27.946;2023-04-08T07:10:09;101390.16;;;22.55;45.04
38022;BME280;23832;43.216;27.946;2023-04-08T07:12:11;101388.41;;;22.26;45.31
38022;BME280;23832;43.216;27.946;2023-04-08T07:14:13;101390.75;;;22.81;44.06
38022;BME280;23832;43.216;27.946;2023-04-08T07:16:15;101390.44;;;22.65;44.49
38022;BME280;23832;43.216;27.946;2023-04-08T07:18:17;101392.38;;;23.05;43.85
38022;BME280;23832;43.216;27.946;2023-04-08T07:20:20;101318.00;;;22.12;44.58
38022;BME280;23832;43.216;27.946;2023-04-08T07:22:22;101402.66;;;23.20;43.81
38022;BME280;23832;43.216;27.946;2023-04-08T07:24:25;101400.47;;;22.93;43.81
38022;BME280;23832;43.216;27.946;2023-04-08T07:26:27;101396.94;;;22.46;44.63
38022;BME280;23832;43.216;27.946;2023-04-08T07:28:29;101404.19;;;22.81;44.00
38022;BME280;23832;43.216;27.946;2023-04-08T07:30:30;101412.63;;;22.96;43.62
38022;BME280;23832;43.216;27.946;2023-04-08T07:32:32;101413.56;;;23.42;42.87
38022;BME280;23832;43.216;27.946;2023-04-08T07:34:34;101415.72;;;23.16;43.28
38022;BME280;23832;43.216;27.946;2023-04-08T07:36:36;101422.34;;;22.85;43.85
38022;BME280;23832;43.216;27.946;2023-04-08T07:38:38;101420.91;;;22.48;44.73
38022;BME280;23832;43.216;27.946;2023-04-08T07:40:42;101416.81;;;22.69;44.24
38022;BME280;23832;43.216;27.946;2023-04-08T07:42:44;101414.00;;;21.98;45.64
38022;BME280;23832;43.216;27.946;2023-04-08T07:44:46;101413.41;;;22.73;45.24
38022;BME280;23832;43.216;27.946;2023-04-08T07:46:47;101416.00;;;23.43;43.92
38022;BME280;23832;43.216;27.946;2023-04-08T07:48:50;101411.09;;;22.77;44.85
38022;BME280;23832;43.216;27.946;2023-04-08T07:50:52;101412.28;;;22.92;44.78
38022;BME280;23832;43.216;27.946;2023-04-08T07:52:54;101406.28;;;22.79;44.94
38022;BME280;23832;43.216;27.946;2023-04-08T07:54:56;101409.63;;;23.33;44.38
38022;BME280;23832;43.216;27.946;2023-04-08T07:56:59;101402.69;;;23.77;43.15
38022;BME280;23832;43.216;27.946;2023-04-08T07:59:01;101403.56;;;23.66;43.41
38022;BME280;23832;43.216;27.946;2023-04-08T08:01:03;101415.09;;;23.38;43.46
38022;BME280;23832;43.216;27.946;2023-04-08T08:03:05;101412.72;;;24.44;42.00
38022;BME280;23832;43.216;27.946;2023-04-08T08:05:07;101408.88;;;24.95;41.61
38022;BME280;23832;43.216;27.946;2023-04-08T08:07:09;101402.81;;;25.05;40.46
38022;BME280;23832;43.216;27.946;2023-04-08T08:09:10;101413.44;;;24.22;42.27
38022;BME280;23832;43.216;27.946;2023-04-08T08:11:12;101409.53;;;24.47;42.17
38022;BME280;23832;43.216;27.946;2023-04-08T08:13:15;101420.50;;;23.95;42.93
38022;BME280;23832;43.216;27.946;2023-04-08T08:15:20;101415.53;;;24.71;41.84
38022;BME280;23832;43.216;27.946;2023-04-08T08:17:22;101414.31;;;25.39;40.69
38022;BME280;23832;43.216;27.946;2023-04-08T08:19:24;101423.25;;;26.57;38.52
38022;BME280;23832;43.216;27.946;2023-04-08T08:21:25;101418.75;;;25.72;39.76
38022;BME280;23832;43.216;27.946;2023-04-08T08:23:27;101413.59;;;25.48;39.21
38022;BME280;23832;43.216;27.946;2023-04-08T08:25:29;101420.53;;;26.52;38.11
38022;BME280;23832;43.216;27.946;2023-04-08T08:27:31;101411.31;;;26.48;37.75
38022;BME280;23832;43.216;27.946;2023-04-08T08:29:35;101416.34;;;26.77;37.97
38022;BME280;23832;43.216;27.946;2023-04-08T08:31:37;101422.97;;;27.01;37.20
38022;BME280;23832;43.216;27.946;2023-04-08T08:33:39;101417.88;;;26.25;37.90
38022;BME280;23832;43.216;27.946;2023-04-08T08:35:40;101421.16;;;27.95;35.66
38022;BME280;23832;43.216;27.946;2023-04-08T08:37:51;101428.00;;;27.30;36.01
38022;BME280;23832;43.216;27.946;2023-04-08T08:39:52;101418.69;;;28.04;35.39
38022;BME280;23832;43.216;27.946;2023-04-08T08:41:54;101427.97;;;27.14;35.83
38022;BME280;23832;43.216;27.946;2023-04-08T08:43:56;101428.28;;;26.81;36.34
38022;BME280;23832;43.216;27.946;2023-04-08T08:46:01;101414.84;;;25.63;37.99
38022;BME280;23832;43.216;27.946;2023-04-08T08:48:05;101419.03;;;26.02;37.78
38022;BME280;23832;43.216;27.946;2023-04-08T08:50:07;101419.22;;;25.20;38.45
38022;BME280;23832;43.216;27.946;2023-04-08T08:52:09;101426.94;;;24.56;39.33
38022;BME280;23832;43.216;27.946;2023-04-08T08:54:11;101423.88;;;25.52;38.80
38022;BME280;23832;43.216;27.946;2023-04-08T08:56:13;101429.94;;;25.37;38.86
38022;BME280;23832;43.216;27.946;2023-04-08T08:58:15;101419.97;;;24.60;38.71
38022;BME280;23832;43.216;27.946;2023-04-08T09:00:16;101433.84;;;24.18;39.78
38022;BME280;23832;43.216;27.946;2023-04-08T09:02:26;101427.44;;;23.91;40.41
38022;BME280;23832;43.216;27.946;2023-04-08T09:04:28;101439.38;;;22.79;42.08
38022;BME280;23832;43.216;27.946;2023-04-08T09:06:30;101434.78;;;22.21;42.64
38022;BME280;23832;43.216;27.946;2023-04-08T09:08:33;101437.09;;;21.58;44.05
38022;BME280;23832;43.216;27.946;2023-04-08T09:10:35;101437.19;;;20.71;45.56
38022;BME280;23832;43.216;27.946;2023-04-08T09:12:51;101443.31;;;20.78;46.72
38022;BME280;23832;43.216;27.946;2023-04-08T09:15:03;101442.50;;;20.53;47.08
38022;BME280;23832;43.216;27.946;2023-04-08T09:17:05;101443.41;;;20.40;48.12
38022;BME280;23832;43.216;27.946;2023-04-08T09:19:09;101442.28;;;20.97;46.76
38022;BME280;23832;43.216;27.946;2023-04-08T09:21:12;101429.59;;;20.68;46.78
38022;BME280;23832;43.216;27.946;2023-04-08T09:23:14;101436.41;;;20.64;47.30
38022;BME280;23832;43.216;27.946;2023-04-08T09:25:22;101438.72;;;20.85;46.76
38022;BME280;23832;43.216;27.946;2023-04-08T09:27:32;101441.47;;;20.54;47.42
38022;BME280;23832;43.216;27.946;2023-04-08T09:29:34;101446.50;;;20.68;46.94
38022;BME280;23832;43.216;27.946;2023-04-08T09:31:36;101450.53;;;20.21;48.44
38022;BME280;23832;43.216;27.946;2023-04-08T09:33:40;101446.69;;;21.10;46.77
38022;BME280;23832;43.216;27.946;2023-04-08T09:35:44;101446.28;;;20.88;47.05
38022;BME280;23832;43.216;27.946;2023-04-08T09:37:47;101445.72;;;21.05;46.85
38022;BME280;23832;43.216;27.946;2023-04-08T09:39:49;101450.03;;;20.87;47.41
38022;BME280;23832;43.216;27.946;2023-04-08T09:41:51;101441.34;;;20.67;47.74
38022;BME280;23832;43.216;27.946;2023-04-08T09:43:53;101444.50;;;20.82;47.71
38022;BME280;23832;43.216;27.946;2023-04-08T09:45:55;101446.03;;;20.72;48.49
38022;BME280;23832;43.216;27.946;2023-04-08T09:48:00;101439.03;;;21.14;47.63
38022;BME280;23832;43.216;27.946;2023-04-08T09:50:08;101444.78;;;20.74;47.81
38022;BME280;23832;43.216;27.946;2023-04-08T09:52:12;101451.69;;;21.43;47.41
38022;BME280;23832;43.216;27.946;2023-04-08T09:54:17;101435.53;;;21.13;47.80
38022;BME280;23832;43.216;27.946;2023-04-08T09:56:20;101451.91;;;21.60;46.98
38022;BME280;23832;43.216;27.946;2023-04-08T09:58:24;101447.00;;;21.57;47.19
38022;BME280;23832;43.216;27.946;2023-04-08T10:00:29;101436.34;;;22.10;46.42
38022;BME280;23832;43.216;27.946;2023-04-08T10:02:32;101436.56;;;23.61;44.10
38022;BME280;23832;43.216;27.946;2023-04-08T10:04:38;101447.13;;;24.08;43.01
38022;BME280;23832;43.216;27.946;2023-04-08T10:06:40;101434.44;;;24.54;42.26
38022;BME280;23832;43.216;27.946;2023-04-08T10:08:43;101435.94;;;23.99;42.86
38022;BME280;23832;43.216;27.946;2023-04-08T10:10:46;101430.94;;;26.71;38.20
38022;BME280;23832;43.216;27.946;2023-04-08T10:12:50;101432.59;;;25.59;40.08
38022;BME280;23832;43.216;27.946;2023-04-08T10:17:23;101427.41;;;25.30;39.59
38022;BME280;23832;43.216;27.946;2023-04-08T10:19:36;101429.59;;;25.77;38.18
38022;BME280;23832;43.216;27.946;2023-04-08T10:21:39;101435.09;;;25.38;39.01
38022;BME280;23832;43.216;27.946;2023-04-08T10:23:55;101423.03;;;26.27;38.44
38022;BME280;23832;43.216;27.946;2023-04-08T10:25:58;101423.00;;;25.95;38.50
38022;BME280;23832;43.216;27.946;2023-04-08T10:28:00;101430.25;;;26.16;38.03
38022;BME280;23832;43.216;27.946;2023-04-08T10:30:02;101420.41;;;26.37;
38022;BME280;23832;43.216;27.946;2023-04-08T10:32:28;101420.47;;;26.42;37.61
38022;BME280;23832;43.216;27.946;2023-04-08T10:34:30;101413.44;;;24.95;39.15